LIRE

Pratica Di Mare Airport

Pomezia, Italy
TAF LIRE 162300Z 1700/1709 10010KT 9999 FEW030
Issued Valid From Valid To
Jan-16 @ 23:00 UTC
(2 hours ago)
Jan-17 @ 00:00 UTC
(37 minutes ago)
Jan-17 @ 09:00 UTC
(in 8 hours)
Jan-17 @ 00:00 to Jan-17 @ 09:00
TAF LIRE 162300Z 1700/1709 10010KT 9999 FEW030
Wind Visibility Clouds
100° at 10 knots 10,000+ meters
  • Few at 3,000' AGL
TAF LIRE 162300Z 1700/1709 10010KT 9999 FEW030
Issued Jan-16 @ 23:00 UTC
(2 hours ago)
Valid From Jan-17 @ 00:00 UTC
(37 minutes ago)
Valid To Jan-17 @ 09:00 UTC
(in 8 hours)
Jan-17 @ 00:00 - Jan-17 @ 09:00
Wind Visibility
100° at 10 knots 10,000+ meters
Clouds
  • Few at 3,000' AGL